Time;durP1;ratioP1;P1;durP2;ratioP2;P2;SDS_P1;SDS_P2;PMS_P1;PMS_P2;Temp;Humidity;BMP_temperature;BMP_pressure;BME280_temperature;BME280_humidity;BME280_pressure;Samples;Min_cycle;Max_cycle;Signal;HPM_P1;HPM_P2
2021/03/23 00:01:48;;;;;;;;;;;;;;;9.55;32.24;101033.75;5043979;28;19917;-87
2021/03/23 00:04:33;;;;;;;;;;;;;;;9.60;32.28;101041.81;5066468;28;19917;-86
2021/03/23 00:07:17;;;;;;;;;;;;;;;9.52;32.72;101047.91;5059289;28;19917;-87
2021/03/23 00:10:01;;;;;;;;;;;;;;;9.33;32.95;101043.38;5069528;28;19917;-87
2021/03/23 00:12:47;;;;;;;;;;;;;;;9.24;32.99;101050.59;5068764;28;19917;-87
2021/03/23 00:15:32;;;;;;;;;;;;;;;9.29;33.01;101058.66;5058800;28;19917;-88
2021/03/23 00:18:17;;;;;;;;;;;;;;;9.13;33.41;101057.28;5057419;28;19921;-85
2021/03/23 00:21:01;;;;;;;;;;;;;;;9.08;33.78;101065.50;5051298;28;19917;-86
2021/03/23 00:23:46;;;;;;;;;;;;;;;8.96;34.16;101068.69;5039726;28;19917;-87
2021/03/23 00:26:31;;;;;;;;;;;;;;;9.20;34.54;101063.13;5021054;28;19917;-86
2021/03/23 00:29:16;;;;;;;;;;;;;;;8.95;34.77;101064.34;5038779;28;19920;-87
2021/03/23 00:32:04;;;;;;;;;;;;;;;9.05;34.80;101074.22;5053652;28;19917;-88
2021/03/23 00:34:49;;;;;;;;;;;;;;;9.19;35.60;101074.28;5053214;28;19917;-88
2021/03/23 00:37:34;;;;;;;;;;;;;;;9.13;36.10;101083.63;5060998;28;19920;-88
2021/03/23 00:40:22;;;;;;;;;;;;;;;9.31;35.35;101085.47;5055310;28;19935;-88
2021/03/23 00:43:08;;;;;;;;;;;;;;;9.40;34.94;101080.97;5064781;28;19917;-88
2021/03/23 00:45:53;;;;;;;;;;;;;;;9.51;34.71;101087.00;5034320;28;19917;-87
2021/03/23 00:48:38;;;;;;;;;;;;;;;9.37;34.87;101089.72;5055872;28;19916;-87
2021/03/23 00:51:22;;;;;;;;;;;;;;;9.31;35.15;101099.03;5052276;28;19917;-87
2021/03/23 00:54:07;;;;;;;;;;;;;;;9.19;35.34;101096.81;5045021;28;19917;-86
2021/03/23 00:56:52;;;;;;;;;;;;;;;9.36;34.51;101093.50;5050206;28;19916;-88
2021/03/23 00:59:37;;;;;;;;;;;;;;;9.33;34.52;101100.38;5046199;28;19921;-88
2021/03/23 01:02:22;;;;;;;;;;;;;;;9.37;34.42;101098.66;5033252;28;19917;-86
2021/03/23 01:05:07;;;;;;;;;;;;;;;9.33;35.43;101104.97;5059636;28;19917;-86
2021/03/23 01:07:52;;;;;;;;;;;;;;;9.02;35.22;101099.25;5051260;28;19917;-86
2021/03/23 01:10:36;;;;;;;;;;;;;;;9.13;35.05;101106.13;5056064;28;20385;-84
2021/03/23 01:13:21;;;;;;;;;;;;;;;9.15;36.10;101108.53;5059695;28;19917;-86
2021/03/23 01:16:07;;;;;;;;;;;;;;;9.26;35.05;101109.97;5052283;28;19921;-85
2021/03/23 01:18:52;;;;;;;;;;;;;;;9.20;34.24;101109.25;5055286;28;19921;-86
2021/03/23 01:21:37;;;;;;;;;;;;;;;9.19;33.95;101113.09;5048050;28;19917;-85
2021/03/23 01:24:22;;;;;;;;;;;;;;;9.30;33.64;101119.13;5040112;28;19917;-86
2021/03/23 01:27:07;;;;;;;;;;;;;;;9.11;34.36;101121.88;5038009;28;19917;-88
2021/03/23 01:29:51;;;;;;;;;;;;;;;9.14;33.93;101120.50;5038082;28;19917;-86
2021/03/23 01:32:37;;;;;;;;;;;;;;;9.17;35.00;101125.31;5040338;28;19921;-85
2021/03/23 01:35:22;;;;;;;;;;;;;;;9.10;36.10;101122.97;5049570;28;19916;-86
2021/03/23 01:38:08;;;;;;;;;;;;;;;9.08;36.27;101138.75;5059920;28;19921;-85
2021/03/23 01:40:53;;;;;;;;;;;;;;;9.14;36.71;101134.88;5016229;28;20374;-85
2021/03/23 01:43:37;;;;;;;;;;;;;;;9.26;35.83;101146.06;5042330;28;19932;-86
2021/03/23 01:46:33;;;;;;;;;;;;;;;9.16;35.74;101146.22;5060552;28;19917;-86
2021/03/23 01:49:24;;;;;;;;;;;;;;;9.04;35.63;101151.28;5060052;28;19916;-86
2021/03/23 01:52:13;;;;;;;;;;;;;;;9.02;35.46;101140.75;5044116;28;19917;-86
2021/03/23 01:55:00;;;;;;;;;;;;;;;9.07;34.38;101142.56;5032309;28;19916;-87
2021/03/23 01:57:46;;;;;;;;;;;;;;;9.11;34.02;101151.72;5041430;28;20376;-86
2021/03/23 02:00:31;;;;;;;;;;;;;;;9.01;34.68;101151.88;5055406;28;19916;-86
2021/03/23 02:03:18;;;;;;;;;;;;;;;9.09;34.42;101150.41;5019524;28;19917;-86
2021/03/23 02:06:04;;;;;;;;;;;;;;;9.02;34.97;101161.63;5019709;28;20286;-86
2021/03/23 02:08:49;;;;;;;;;;;;;;;9.08;34.57;101151.50;5019691;28;19918;-86
2021/03/23 02:11:36;;;;;;;;;;;;;;;9.17;35.30;101153.25;5022973;28;19917;-86
2021/03/23 02:14:23;;;;;;;;;;;;;;;9.07;35.08;101158.03;5052842;28;19917;-86
2021/03/23 02:17:21;;;;;;;;;;;;;;;9.00;35.32;101163.81;5043621;28;19917;-86
2021/03/23 02:20:08;;;;;;;;;;;;;;;9.08;36.23;101165.06;5021514;28;19922;-86
2021/03/23 02:23:16;;;;;;;;;;;;;;;9.06;34.88;101159.94;5047292;28;19917;-86
2021/03/23 02:26:01;;;;;;;;;;;;;;;8.79;35.25;101157.06;5033188;28;19917;-86
2021/03/23 02:28:52;;;;;;;;;;;;;;;8.76;35.63;101157.66;5023487;28;19922;-85
2021/03/23 02:31:40;;;;;;;;;;;;;;;8.70;36.41;101166.94;5016690;28;19917;-86
2021/03/23 02:34:25;;;;;;;;;;;;;;;8.57;37.88;101165.78;5074059;28;19917;-88
2021/03/23 02:37:09;;;;;;;;;;;;;;;8.55;37.95;101168.75;5077457;28;19921;-87
2021/03/23 02:39:54;;;;;;;;;;;;;;;8.57;36.56;101172.00;5061701;28;20429;-86
2021/03/23 02:42:38;;;;;;;;;;;;;;;8.67;36.63;101176.47;5069563;28;19917;-87
2021/03/23 02:45:24;;;;;;;;;;;;;;;8.59;37.29;101172.50;5064911;28;19921;-87
2021/03/23 02:48:09;;;;;;;;;;;;;;;8.59;39.23;101175.22;5062352;28;19920;-85
2021/03/23 02:50:54;;;;;;;;;;;;;;;8.71;37.77;101176.69;5057790;28;19917;-85
2021/03/23 02:53:38;;;;;;;;;;;;;;;8.55;36.58;101174.19;5062611;28;19917;-86
2021/03/23 02:56:23;;;;;;;;;;;;;;;8.23;36.74;101178.63;5070188;28;19916;-87
2021/03/23 02:59:07;;;;;;;;;;;;;;;8.00;37.77;101189.16;5068750;28;19920;-87
2021/03/23 03:01:52;;;;;;;;;;;;;;;8.04;38.04;101189.38;5065625;28;19917;-87
2021/03/23 03:04:38;;;;;;;;;;;;;;;7.92;37.88;101191.69;5047358;28;20321;-87
2021/03/23 03:07:23;;;;;;;;;;;;;;;7.98;38.17;101198.63;5070131;28;19917;-87
2021/03/23 03:10:08;;;;;;;;;;;;;;;7.97;38.45;101200.56;5064657;28;19917;-87
2021/03/23 03:12:54;;;;;;;;;;;;;;;7.69;38.42;101204.84;5047466;28;19916;-87
2021/03/23 03:15:38;;;;;;;;;;;;;;;7.83;38.37;101201.47;5053202;28;19917;-88
2021/03/23 03:18:23;;;;;;;;;;;;;;;7.79;38.58;101203.16;5060199;28;19929;-86
2021/03/23 03:21:08;;;;;;;;;;;;;;;7.68;38.82;101208.66;5063222;28;19917;-87
2021/03/23 03:23:53;;;;;;;;;;;;;;;7.71;39.51;101205.41;5053204;28;19917;-88
2021/03/23 03:26:38;;;;;;;;;;;;;;;7.78;38.86;101210.47;5055454;28;19916;-87
2021/03/23 03:29:23;;;;;;;;;;;;;;;7.81;38.60;101211.81;5046770;22;20414;-84
2021/03/23 03:32:08;;;;;;;;;;;;;;;7.78;39.23;101215.88;5034189;28;19930;-86
2021/03/23 03:34:52;;;;;;;;;;;;;;;7.68;39.13;101218.66;5021213;28;19918;-85
2021/03/23 03:37:37;;;;;;;;;;;;;;;7.56;38.87;101221.75;5018216;28;20316;-86
2021/03/23 03:40:28;;;;;;;;;;;;;;;7.29;39.78;101226.81;5001816;28;19930;-87
2021/03/23 03:43:13;;;;;;;;;;;;;;;7.14;40.73;101230.41;5001823;28;19939;-86
2021/03/23 03:45:59;;;;;;;;;;;;;;;7.03;40.65;101234.25;5001669;28;19921;-87
2021/03/23 03:48:44;;;;;;;;;;;;;;;7.16;41.54;101230.94;4998931;28;19918;-85
2021/03/23 03:51:28;;;;;;;;;;;;;;;7.08;42.71;101234.25;5001956;28;19921;-87
2021/03/23 03:54:13;;;;;;;;;;;;;;;7.21;40.21;101232.81;5001578;28;19918;-87
2021/03/23 03:56:57;;;;;;;;;;;;;;;7.28;40.13;101242.22;5001630;28;19922;-86
2021/03/23 03:59:42;;;;;;;;;;;;;;;7.17;40.51;101245.25;4996110;28;19926;-86
2021/03/23 04:02:26;;;;;;;;;;;;;;;6.75;40.57;101248.47;5001375;28;19917;-87
2021/03/23 04:05:22;;;;;;;;;;;;;;;7.02;40.53;101246.16;5001148;28;19918;-86
2021/03/23 04:08:08;;;;;;;;;;;;;;;7.09;40.30;101248.56;5000291;28;19917;-87
2021/03/23 04:10:53;;;;;;;;;;;;;;;7.04;40.49;101251.31;5001314;28;19918;-85
2021/03/23 04:13:38;;;;;;;;;;;;;;;7.07;40.09;101256.13;5001086;28;19922;-85
2021/03/23 04:16:22;;;;;;;;;;;;;;;7.04;40.48;101252.13;5001336;28;19918;-86
2021/03/23 04:19:07;;;;;;;;;;;;;;;7.10;40.09;101264.53;5001866;28;19922;-86
2021/03/23 04:21:52;;;;;;;;;;;;;;;6.97;40.63;101261.59;5002750;28;19917;-86
2021/03/23 04:24:37;;;;;;;;;;;;;;;6.82;41.05;101260.59;4981654;28;20382;-86
2021/03/23 04:27:22;;;;;;;;;;;;;;;6.93;40.86;101265.94;5001039;28;20290;-87
2021/03/23 04:30:08;;;;;;;;;;;;;;;6.87;41.16;101279.50;4994870;28;20382;-85
2021/03/23 04:32:55;;;;;;;;;;;;;;;6.94;42.00;101267.56;5000778;28;19918;-86
2021/03/23 04:35:42;;;;;;;;;;;;;;;6.94;41.63;101272.97;5000047;28;19917;-86
2021/03/23 04:38:29;;;;;;;;;;;;;;;6.86;42.08;101277.88;4998530;28;19921;-87
2021/03/23 04:41:14;;;;;;;;;;;;;;;6.91;41.79;101270.84;5000726;28;19918;-86
2021/03/23 04:43:59;;;;;;;;;;;;;;;6.99;41.98;101281.88;5000493;28;20310;-86
2021/03/23 04:46:43;;;;;;;;;;;;;;;6.95;42.45;101288.94;5000600;28;19917;-87
2021/03/23 04:49:28;;;;;;;;;;;;;;;6.89;42.71;101276.50;4995719;28;19930;-88
2021/03/23 04:52:12;;;;;;;;;;;;;;;6.98;42.29;101284.84;5000404;28;19917;-85
2021/03/23 04:54:57;;;;;;;;;;;;;;;6.87;42.32;101293.00;5000376;28;19921;-88
2021/03/23 04:57:41;;;;;;;;;;;;;;;6.88;42.90;101302.75;5000801;28;20301;-87
2021/03/23 05:00:26;;;;;;;;;;;;;;;6.94;43.75;101303.53;5000729;28;20298;-86
2021/03/23 05:03:13;;;;;;;;;;;;;;;7.01;43.79;101305.94;5000562;28;19917;-86
2021/03/23 05:05:58;;;;;;;;;;;;;;;7.09;42.60;101302.66;5000391;28;20387;-86
2021/03/23 05:08:43;;;;;;;;;;;;;;;7.11;42.97;101303.19;4997654;28;19918;-86
2021/03/23 05:11:28;;;;;;;;;;;;;;;7.24;43.39;101316.09;4996601;28;20298;-87
2021/03/23 05:14:13;;;;;;;;;;;;;;;6.81;42.93;101317.63;5000193;28;19926;-85
2021/03/23 05:16:58;;;;;;;;;;;;;;;6.66;43.41;101333.88;5000383;28;19918;-87
2021/03/23 05:19:42;;;;;;;;;;;;;;;6.30;44.96;101338.50;4996315;28;19922;-85
2021/03/23 05:22:27;;;;;;;;;;;;;;;6.36;44.77;101342.84;5000201;28;19917;-86
2021/03/23 05:25:13;;;;;;;;;;;;;;;6.62;44.24;101343.63;5000001;28;19918;-86
2021/03/23 05:27:58;;;;;;;;;;;;;;;6.48;44.47;101343.38;5003868;28;19925;-85
2021/03/23 05:30:43;;;;;;;;;;;;;;;6.63;44.72;101345.25;5019668;28;19913;-85
2021/03/23 05:33:27;;;;;;;;;;;;;;;6.53;44.66;101347.97;5019724;28;19917;-88
2021/03/23 05:36:12;;;;;;;;;;;;;;;6.54;44.53;101355.00;5019160;28;19917;-88
2021/03/23 05:38:57;;;;;;;;;;;;;;;6.64;44.31;101350.38;5007471;28;19922;-82
2021/03/23 05:41:47;;;;;;;;;;;;;;;6.63;44.43;101356.84;4995826;28;19921;-83
2021/03/23 05:44:45;;;;;;;;;;;;;;;6.78;44.28;101362.22;4995849;28;19917;-84
2021/03/23 05:47:31;;;;;;;;;;;;;;;6.69;44.70;101357.66;4994595;28;20294;-84
2021/03/23 05:50:29;;;;;;;;;;;;;;;6.83;44.87;101364.94;5001764;28;19918;-82
2021/03/23 05:53:19;;;;;;;;;;;;;;;6.93;44.60;101366.78;5009201;28;19918;-83
2021/03/23 05:56:04;;;;;;;;;;;;;;;7.03;45.70;101368.66;5015520;28;19918;-83
2021/03/23 05:58:50;;;;;;;;;;;;;;;7.06;45.72;101370.81;4999696;28;19926;-80
2021/03/23 06:01:40;;;;;;;;;;;;;;;7.30;45.07;101377.22;5013688;28;19929;-85
2021/03/23 06:04:48;;;;;;;;;;;;;;;7.27;43.93;101380.47;4996575;28;19918;-82
2021/03/23 06:07:37;;;;;;;;;;;;;;;7.31;44.96;101387.75;5002861;28;19918;-83
2021/03/23 06:10:22;;;;;;;;;;;;;;;7.38;45.44;101387.44;4988515;28;20390;-83
2021/03/23 06:13:27;;;;;;;;;;;;;;;7.48;45.88;101392.00;5001732;28;20305;-82
2021/03/23 06:16:20;;;;;;;;;;;;;;;7.71;44.97;101391.38;5003184;28;19917;-82
2021/03/23 06:19:21;;;;;;;;;;;;;;;7.88;44.73;101396.38;5023466;28;19921;-82
2021/03/23 06:22:17;;;;;;;;;;;;;;;8.12;44.29;101397.31;5006685;28;19918;-84
2021/03/23 06:25:08;;;;;;;;;;;;;;;8.27;44.30;101402.63;4978629;28;19918;-82
2021/03/23 06:27:54;;;;;;;;;;;;;;;8.43;43.72;101404.13;4981646;28;19918;-83
2021/03/23 06:30:38;;;;;;;;;;;;;;;8.61;44.23;101415.38;4993982;28;20393;-84
2021/03/23 06:33:24;;;;;;;;;;;;;;;8.80;43.67;101419.00;4996696;28;19917;-82
2021/03/23 06:36:19;;;;;;;;;;;;;;;8.98;43.79;101415.56;4981429;28;19921;-85
2021/03/23 06:39:04;;;;;;;;;;;;;;;9.17;43.34;101423.78;4979248;28;19922;-82
2021/03/23 06:41:59;;;;;;;;;;;;;;;9.40;43.55;101426.47;4976920;28;19918;-85
2021/03/23 06:44:43;;;;;;;;;;;;;;;9.77;42.27;101422.22;4976335;28;20371;-83
2021/03/23 06:47:32;;;;;;;;;;;;;;;9.72;41.44;101425.00;4978597;28;19918;-84
2021/03/23 06:50:24;;;;;;;;;;;;;;;10.04;41.26;101427.00;4976488;28;19918;-83
2021/03/23 06:53:11;;;;;;;;;;;;;;;10.38;40.67;101433.03;4980217;28;19922;-82
2021/03/23 06:56:13;;;;;;;;;;;;;;;10.28;40.61;101442.16;4978110;28;19918;-82
2021/03/23 06:59:10;;;;;;;;;;;;;;;10.35;39.97;101449.94;4978829;28;19922;-81
2021/03/23 07:02:01;;;;;;;;;;;;;;;10.18;39.82;101449.66;4979107;28;19918;-82
2021/03/23 07:04:45;;;;;;;;;;;;;;;10.20;40.26;101448.28;4989201;28;19918;-83
2021/03/23 07:07:30;;;;;;;;;;;;;;;10.48;39.85;101454.63;4980511;28;19918;-82
2021/03/23 07:10:22;;;;;;;;;;;;;;;10.57;40.68;101452.84;4979068;28;19918;-83
2021/03/23 07:13:08;;;;;;;;;;;;;;;10.55;40.81;101460.50;4976117;28;19918;-82
2021/03/23 07:16:01;;;;;;;;;;;;;;;10.71;39.15;101461.06;4980107;28;19918;-82
2021/03/23 07:18:49;;;;;;;;;;;;;;;10.63;38.96;101457.09;4977885;28;19918;-83
2021/03/23 07:21:39;;;;;;;;;;;;;;;10.53;39.12;101456.44;4975826;28;19918;-83
2021/03/23 07:24:31;;;;;;;;;;;;;;;10.65;38.63;101463.06;4996198;28;19917;-86
2021/03/23 07:27:17;;;;;;;;;;;;;;;10.62;38.42;101463.63;5000518;28;19917;-83
2021/03/23 07:30:13;;;;;;;;;;;;;;;10.79;38.38;101459.56;4995468;28;19922;-83
2021/03/23 07:33:01;;;;;;;;;;;;;;;10.77;38.39;101473.44;4998340;28;19918;-85
2021/03/23 07:35:49;;;;;;;;;;;;;;;10.84;38.06;101465.72;5015086;28;19917;-86
2021/03/23 07:38:45;;;;;;;;;;;;;;;10.95;37.36;101463.63;5019190;28;19917;-85
2021/03/23 07:41:42;;;;;;;;;;;;;;;10.98;38.10;101463.84;5021462;28;19917;-83
2021/03/23 07:44:30;;;;;;;;;;;;;;;10.94;37.47;101471.00;5015336;28;19918;-86
2021/03/23 07:47:17;;;;;;;;;;;;;;;11.05;38.19;101475.16;5021652;28;19918;-86
2021/03/23 07:50:05;;;;;;;;;;;;;;;11.15;37.53;101480.41;4998314;28;20297;-84
2021/03/23 07:53:10;;;;;;;;;;;;;;;11.05;37.69;101472.44;5001721;28;20421;-85
2021/03/23 07:56:00;;;;;;;;;;;;;;;11.08;37.03;101476.44;4980098;28;19918;-84
2021/03/23 07:58:52;;;;;;;;;;;;;;;11.08;36.60;101488.16;4996231;28;19917;-85
2021/03/23 08:01:48;;;;;;;;;;;;;;;11.06;36.55;101482.22;5001590;28;19917;-84
2021/03/23 08:04:32;;;;;;;;;;;;;;;11.23;36.49;101483.53;5001527;28;20374;-83
2021/03/23 08:07:17;;;;;;;;;;;;;;;11.14;36.50;101481.50;4995843;28;19918;-84
2021/03/23 08:10:11;;;;;;;;;;;;;;;11.14;36.30;101486.97;4994266;28;19918;-84
2021/03/23 08:13:11;;;;;;;;;;;;;;;11.35;35.33;101489.31;5001256;28;20453;-84
2021/03/23 08:16:05;;;;;;;;;;;;;;;11.21;36.32;101489.28;5001056;28;19922;-85
2021/03/23 08:19:06;;;;;;;;;;;;;;;11.26;35.71;101496.56;4997228;28;19921;-84
2021/03/23 08:21:57;;;;;;;;;;;;;;;11.35;35.68;101503.72;4994965;28;19918;-85
2021/03/23 08:25:00;;;;;;;;;;;;;;;11.34;35.83;101498.56;5000572;28;20398;-83
2021/03/23 08:27:47;;;;;;;;;;;;;;;11.35;36.05;101511.09;5008996;28;19918;-84
2021/03/23 08:30:35;;;;;;;;;;;;;;;11.43;35.65;101513.09;5003035;28;20301;-85
2021/03/23 08:33:38;;;;;;;;;;;;;;;11.33;35.66;101514.09;4997357;28;20390;-83
2021/03/23 08:36:26;;;;;;;;;;;;;;;11.35;35.44;101519.25;5000524;28;19918;-84
2021/03/23 08:39:30;;;;;;;;;;;;;;;11.38;35.46;101518.66;4996368;28;19921;-84
2021/03/23 08:42:14;;;;;;;;;;;;;;;11.31;35.82;101521.78;5013266;28;19918;-83
2021/03/23 08:45:00;;;;;;;;;;;;;;;11.37;36.65;101514.34;4993529;28;19922;-84
2021/03/23 08:47:47;;;;;;;;;;;;;;;11.47;35.37;101522.31;4997513;28;20386;-83
2021/03/23 08:50:34;;;;;;;;;;;;;;;11.55;35.46;101518.88;4993770;28;19917;-84
2021/03/23 08:53:25;;;;;;;;;;;;;;;11.83;35.53;101523.25;4999144;28;19921;-81
2021/03/23 08:56:11;;;;;;;;;;;;;;;11.83;34.65;101517.81;4996416;28;19922;-84
2021/03/23 08:58:55;;;;;;;;;;;;;;;11.91;34.92;101524.47;4995049;28;19918;-82
2021/03/23 09:01:40;;;;;;;;;;;;;;;11.79;34.76;101527.69;4998349;28;20335;-85
2021/03/23 09:04:31;;;;;;;;;;;;;;;12.15;34.56;101532.41;5001973;28;19910;-82
2021/03/23 09:07:16;;;;;;;;;;;;;;;12.10;33.88;101527.06;5008829;28;19917;-83
2021/03/23 09:10:20;;;;;;;;;;;;;;;12.31;33.86;101523.59;4997302;28;19918;-83
2021/03/23 09:13:20;;;;;;;;;;;;;;;12.22;33.67;101525.44;5002959;28;20325;-83
2021/03/23 09:16:15;;;;;;;;;;;;;;;12.36;33.53;101519.94;5001221;28;19917;-84
2021/03/23 09:19:01;;;;;;;;;;;;;;;12.38;33.60;101512.25;4998839;28;20385;-85
2021/03/23 09:21:52;;;;;;;;;;;;;;;12.35;33.45;101518.31;5014763;28;20297;-86
2021/03/23 09:24:43;;;;;;;;;;;;;;;12.29;34.34;101519.56;5019352;28;19917;-85
2021/03/23 09:27:28;;;;;;;;;;;;;;;12.22;34.30;101525.44;5011002;28;19918;-85
2021/03/23 09:30:33;;;;;;;;;;;;;;;12.10;33.96;101527.06;5045949;22;19929;-84
2021/03/23 09:33:24;;;;;;;;;;;;;;;12.46;33.09;101518.88;5024941;28;19921;-85
2021/03/23 09:36:10;;;;;;;;;;;;;;;12.63;32.50;101528.03;5021596;28;19917;-86
2021/03/23 09:38:59;;;;;;;;;;;;;;;12.94;31.69;101524.56;5058739;28;19920;-84
2021/03/23 09:41:46;;;;;;;;;;;;;;;12.67;31.97;101518.13;5056655;28;20419;-84
2021/03/23 09:44:39;;;;;;;;;;;;;;;12.80;31.96;101519.16;5054798;28;19916;-84
2021/03/23 09:47:42;;;;;;;;;;;;;;;12.50;32.19;101523.41;5052293;28;19924;-83
2021/03/23 09:50:36;;;;;;;;;;;;;;;12.64;33.64;101523.41;5056358;28;19917;-84
2021/03/23 09:53:21;;;;;;;;;;;;;;;13.00;31.93;101526.06;5054890;28;19921;-86
2021/03/23 09:56:11;;;;;;;;;;;;;;;12.91;31.44;101523.25;5056451;28;19916;-86
2021/03/23 09:58:59;;;;;;;;;;;;;;;13.19;31.24;101523.97;5055937;28;19917;-86
2021/03/23 10:01:51;;;;;;;;;;;;;;;13.47;30.69;101514.44;5053450;28;20387;-86
2021/03/23 10:04:36;;;;;;;;;;;;;;;13.60;31.07;101510.81;5059013;28;20381;-85
2021/03/23 10:07:25;;;;;;;;;;;;;;;13.81;30.91;101516.53;5055041;28;20377;-87
2021/03/23 10:10:42;;;;;;;;;;;;;;;14.10;30.55;101518.66;5052576;28;19921;-84
2021/03/23 10:13:28;;;;;;;;;;;;;;;14.13;30.14;101518.03;5034413;28;19917;-85
2021/03/23 10:16:42;;;;;;;;;;;;;;;13.75;30.36;101511.50;5052529;28;20385;-83
2021/03/23 10:19:27;;;;;;;;;;;;;;;13.54;30.96;101511.25;5048750;28;19920;-84
2021/03/23 10:22:14;;;;;;;;;;;;;;;13.18;31.88;101505.94;5055494;28;19917;-85
2021/03/23 10:25:00;;;;;;;;;;;;;;;13.22;31.95;101498.75;5051947;28;19917;-83
2021/03/23 10:27:44;;;;;;;;;;;;;;;13.12;32.13;101504.47;5056071;28;19920;-83
2021/03/23 10:30:37;;;;;;;;;;;;;;;13.12;31.79;101502.53;5042665;28;19918;-83
2021/03/23 10:33:24;;;;;;;;;;;;;;;13.37;31.73;101492.88;5032503;28;19917;-83
2021/03/23 10:36:10;;;;;;;;;;;;;;;13.21;30.91;101489.72;5047886;28;19943;-85
2021/03/23 10:38:55;;;;;;;;;;;;;;;13.23;31.40;101486.69;5047170;28;19917;-86
2021/03/23 10:41:40;;;;;;;;;;;;;;;13.19;31.74;101486.53;5044805;28;19921;-86
2021/03/23 10:44:26;;;;;;;;;;;;;;;13.43;30.75;101488.06;5045745;28;20381;-87
2021/03/23 10:47:31;;;;;;;;;;;;;;;13.63;30.21;101491.03;5042550;28;19918;-86
2021/03/23 10:50:23;;;;;;;;;;;;;;;13.85;30.12;101495.63;5041877;28;19917;-84
2021/03/23 10:53:13;;;;;;;;;;;;;;;14.02;30.03;101483.88;5042375;28;19996;-86
2021/03/23 10:55:58;;;;;;;;;;;;;;;13.94;29.71;101479.22;5037049;28;19917;-85
2021/03/23 10:59:02;;;;;;;;;;;;;;;13.93;29.55;101475.69;5036774;28;19917;-87
2021/03/23 11:01:57;;;;;;;;;;;;;;;14.15;29.41;101472.03;5022474;28;19922;-86
2021/03/23 11:04:57;;;;;;;;;;;;;;;14.31;29.99;101470.41;5026567;28;19921;-86
2021/03/23 11:07:42;;;;;;;;;;;;;;;14.45;28.64;101476.56;5023146;28;19917;-87
2021/03/23 11:10:33;;;;;;;;;;;;;;;14.38;28.82;101473.50;5016258;28;19917;-86
2021/03/23 11:13:19;;;;;;;;;;;;;;;14.45;29.04;101471.09;5020163;28;19917;-87
2021/03/23 11:16:07;;;;;;;;;;;;;;;14.31;29.16;101459.47;5017938;28;20310;-88
2021/03/23 11:27:26;;;;;;;;;;;;;;;;;;;;;
2021/03/23 11:42:25;;;;;;;;;;;;;;;;;;;;;
2021/03/23 11:45:41;;;;;;;;;;;;;;;15.16;27.44;101440.50;4975228;28;19922;-88
2021/03/23 11:49:03;;;;;;;;;;;;;;;;;;;;;
2021/03/23 11:51:57;;;;;;;;;;;;;;;15.34;27.93;101436.53;4972073;28;19922;-85
2021/03/23 11:55:09;;;;;;;;;;;;;;;;;;;;;
2021/03/23 11:58:14;;;;;;;;;;;;;;;15.60;26.51;101429.03;5014154;28;20390;-89
2021/03/23 12:01:16;;;;;;;;;;;;;;;15.69;26.52;101429.81;5014365;28;19934;-89
2021/03/23 12:04:47;;;;;;;;;;;;;;;;;;;;;
2021/03/23 12:08:09;;;;;;;;;;;;;;;15.77;26.12;101430.88;5014836;28;19921;-89
2021/03/23 12:15:13;;;;;;;;;;;;;;;;;;;;;
2021/03/23 12:21:51;;;;;;;;;;;;;;;16.14;32.31;101408.00;4998761;28;19922;-84
2021/03/23 12:24:59;;;;;;;;;;;;;;;16.19;25.26;101402.31;5014609;28;19918;-85
2021/03/23 12:27:47;;;;;;;;;;;;;;;16.80;30.71;101410.78;5014964;28;19917;-80
2021/03/23 12:30:31;;;;;;;;;;;;;;;17.03;29.53;101403.72;5015595;28;19917;-80
2021/03/23 12:33:16;;;;;;;;;;;;;;;17.14;28.98;101406.03;5016457;28;19917;-79
2021/03/23 12:36:00;;;;;;;;;;;;;;;17.08;25.40;101391.69;5014368;28;19917;-79
2021/03/23 12:38:46;;;;;;;;;;;;;;;17.31;30.62;101403.06;5013862;28;19922;-79
2021/03/23 12:41:32;;;;;;;;;;;;;;;17.09;25.25;101394.13;5016449;28;19921;-79
2021/03/23 12:44:21;;;;;;;;;;;;;;;16.92;24.53;101388.81;5016089;28;20195;-80
2021/03/23 12:47:05;;;;;;;;;;;;;;;16.99;24.94;101383.56;5025019;28;19921;-80
2021/03/23 12:49:50;;;;;;;;;;;;;;;17.17;29.08;101386.91;5021192;28;19918;-80
2021/03/23 12:52:35;;;;;;;;;;;;;;;17.20;28.38;101380.72;5016612;28;20305;-83
2021/03/23 12:55:25;;;;;;;;;;;;;;;17.25;25.93;101374.19;5017609;28;19918;-82
2021/03/23 12:58:13;;;;;;;;;;;;;;;17.68;28.98;101368.09;5016482;28;19917;-82
2021/03/23 13:00:58;;;;;;;;;;;;;;;17.48;23.89;101367.06;5013850;28;19921;-82
2021/03/23 13:03:42;;;;;;;;;;;;;;;17.49;26.21;101372.22;5018356;28;19917;-81
2021/03/23 13:06:28;;;;;;;;;;;;;;;17.64;27.16;101364.44;5016172;28;19917;-82
2021/03/23 13:09:13;;;;;;;;;;;;;;;17.58;23.74;101358.34;5014397;28;19918;-82
2021/03/23 13:11:58;;;;;;;;;;;;;;;17.41;22.54;101364.13;5018153;28;19917;-82
2021/03/23 13:14:44;;;;;;;;;;;;;;;17.37;24.01;101357.72;5016193;28;20374;-82
2021/03/23 13:17:29;;;;;;;;;;;;;;;17.41;22.75;101355.88;5014758;28;19921;-82
2021/03/23 13:20:13;;;;;;;;;;;;;;;17.53;26.50;101355.81;5014897;28;19922;-81
2021/03/23 13:23:01;;;;;;;;;;;;;;;17.84;30.53;101353.28;5016540;28;19917;-82
2021/03/23 13:25:51;;;;;;;;;;;;;;;17.99;29.60;101348.97;5016240;28;19918;-83
2021/03/23 13:28:43;;;;;;;;;;;;;;;18.15;28.79;101346.28;5020125;28;19922;-83
2021/03/23 13:31:32;;;;;;;;;;;;;;;18.35;32.02;101339.75;5014658;28;19918;-82
2021/03/23 13:34:19;;;;;;;;;;;;;;;18.42;28.90;101331.69;5016647;28;19917;-83
2021/03/23 13:37:05;;;;;;;;;;;;;;;18.08;24.76;101326.81;5021188;28;19917;-84
2021/03/23 13:39:56;;;;;;;;;;;;;;;18.18;26.64;101334.59;5019267;28;20386;-83
2021/03/23 13:42:40;;;;;;;;;;;;;;;18.28;28.88;101326.63;5015299;28;20297;-83
2021/03/23 13:45:29;;;;;;;;;;;;;;;18.02;24.93;101323.53;5023944;28;20386;-84
2021/03/23 13:48:16;;;;;;;;;;;;;;;18.17;29.66;101313.72;5021783;28;19922;-82
2021/03/23 13:51:02;;;;;;;;;;;;;;;18.57;29.34;101319.13;5023984;28;19917;-81
2021/03/23 13:53:46;;;;;;;;;;;;;;;18.48;26.36;101319.28;5036395;28;19921;-81
2021/03/23 13:56:31;;;;;;;;;;;;;;;18.39;23.72;101311.16;5035634;28;19917;-82
2021/03/23 13:59:19;;;;;;;;;;;;;;;18.79;28.21;101313.78;5037508;28;19917;-81
2021/03/23 14:02:04;;;;;;;;;;;;;;;18.37;24.18;101316.22;5036747;28;19921;-81
2021/03/23 14:04:49;;;;;;;;;;;;;;;18.51;27.57;101307.53;5034850;28;19917;-81
2021/03/23 14:07:39;;;;;;;;;;;;;;;18.65;28.15;101307.91;5033611;28;19917;-82
2021/03/23 14:10:26;;;;;;;;;;;;;;;18.72;28.97;101302.59;5038419;28;19917;-81
2021/03/23 14:13:11;;;;;;;;;;;;;;;18.73;27.40;101306.16;5039269;28;19917;-82
2021/03/23 14:15:55;;;;;;;;;;;;;;;18.90;27.87;101308.53;5037289;28;19920;-81
2021/03/23 14:18:40;;;;;;;;;;;;;;;18.60;23.76;101304.63;5040736;28;20312;-81
2021/03/23 14:21:25;;;;;;;;;;;;;;;18.66;29.06;101308.72;5039269;28;20389;-81
2021/03/23 14:24:13;;;;;;;;;;;;;;;18.61;27.07;101295.22;5036954;28;20325;-81
2021/03/23 14:26:58;;;;;;;;;;;;;;;18.57;27.06;101291.56;5041188;28;19917;-82
2021/03/23 14:29:42;;;;;;;;;;;;;;;18.72;28.06;101290.78;5038957;28;19917;-81
2021/03/23 14:32:27;;;;;;;;;;;;;;;18.59;25.99;101287.28;5037202;28;20293;-82
2021/03/23 14:35:13;;;;;;;;;;;;;;;18.59;24.17;101287.28;5040859;28;19917;-81
2021/03/23 14:37:59;;;;;;;;;;;;;;;18.26;23.09;101284.84;5039375;28;19917;-81
2021/03/23 14:40:44;;;;;;;;;;;;;;;18.06;20.86;101277.63;5036823;28;19924;-82
2021/03/23 14:43:30;;;;;;;;;;;;;;;18.78;26.29;101290.16;5035369;28;19918;-82
2021/03/23 14:46:25;;;;;;;;;;;;;;;19.38;23.87;101279.72;5050703;28;19917;-82
2021/03/23 14:49:10;;;;;;;;;;;;;;;18.72;26.34;101285.28;5056562;28;19917;-81
2021/03/23 14:51:55;;;;;;;;;;;;;;;18.03;20.12;101269.28;5059598;28;20388;-82
2021/03/23 14:54:40;;;;;;;;;;;;;;;17.86;21.36;101268.44;5058176;28;19917;-81
2021/03/23 14:57:29;;;;;;;;;;;;;;;17.56;19.27;101267.16;5063397;28;19917;-82
2021/03/23 15:00:26;;;;;;;;;;;;;;;17.71;22.83;101263.69;5056936;28;19921;-81
2021/03/23 15:03:12;;;;;;;;;;;;;;;17.49;20.71;101250.44;5057770;28;19916;-80
2021/03/23 15:05:57;;;;;;;;;;;;;;;17.61;22.90;101246.88;5056017;28;19917;-81
2021/03/23 15:08:45;;;;;;;;;;;;;;;17.90;27.01;101261.06;5060873;28;19917;-81